EDLW/DTM METAR and TAF weather

Enter ICAO airport designator
Station Type Date Time Source
EDLW METAR 2018/10/21 04:20 UTC NOAA

EDLW 210420Z 17009KT CAVOK 04/03 Q1029


Station Type Date Time Source
EDLW Decoded METAR 2018/10/21 04:20 UTC NOAA

Dortmund / Wickede, Germany (EDLW) 51-31N 007-37E
Oct 21, 2018 - 12:20 AM EDT / 2018.10.21 0420 UTC
Wind: from the S (170 degrees) at 10 MPH (9 KT):0
Visibility: greater than 7 mile(s):0
Temperature: 39 F (4 C)
Dew Point: 37 F (3 C)
Relative Humidity: 93%
Pressure (altimeter): 30.39 in. Hg (1029 hPa)
ob: EDLW 210420Z 17009KT CAVOK 04/03 Q1029
cycle: 4

Station Type Date Time Source
EDLW TAF 2018/10/21 04:59 UTC NOAA

TAF EDLW 210350Z 2104/2124 17005KT CAVOK


Example: see airport list